createdAt,value
2022-10-05T00:01:17.486Z,1.92
2022-10-05T00:03:44.448Z,1.80
2022-10-05T00:06:12.402Z,2.40
2022-10-05T00:08:39.543Z,2.42
2022-10-05T00:11:12.730Z,2.33
2022-10-05T00:13:40.529Z,2.28
2022-10-05T00:16:18.124Z,2.22
2022-10-05T00:18:53.537Z,2.13
2022-10-05T00:21:26.770Z,2.30
2022-10-05T00:23:56.961Z,2.63
2022-10-05T00:26:26.495Z,2.30
2022-10-05T00:28:54.902Z,2.67
2022-10-05T00:31:27.965Z,2.42
2022-10-05T00:34:00.637Z,2.17
2022-10-05T00:36:28.995Z,2.70
2022-10-05T00:38:56.029Z,2.33
2022-10-05T00:41:41.121Z,2.30
2022-10-05T00:44:07.961Z,2.42
2022-10-05T00:46:50.296Z,2.42
2022-10-05T00:49:34.523Z,2.90
2022-10-05T00:52:10.810Z,2.63
2022-10-05T00:54:45.321Z,2.50
2022-10-05T00:57:42.470Z,2.60
2022-10-05T01:00:14.285Z,2.58
2022-10-05T01:02:49.986Z,2.30
2022-10-05T01:05:29.929Z,2.77
2022-10-05T01:08:14.585Z,2.70
2022-10-05T01:11:19.111Z,2.60
2022-10-05T01:14:10.728Z,2.40
2022-10-05T01:16:56.620Z,3.10
2022-10-05T01:20:00.990Z,2.70
2022-10-05T01:23:06.560Z,2.72
2022-10-05T01:25:57.856Z,2.63
2022-10-05T01:28:30.825Z,2.45
2022-10-05T01:31:26.914Z,2.13
2022-10-05T01:34:18.985Z,2.42
2022-10-05T01:37:04.020Z,2.60
2022-10-05T01:39:50.527Z,2.30
2022-10-05T01:43:12.030Z,2.92
2022-10-05T01:45:53.886Z,2.88
2022-10-05T01:48:44.862Z,2.53
2022-10-05T01:51:27.155Z,2.70
2022-10-05T01:54:03.151Z,2.90
2022-10-05T01:57:11.452Z,2.70
2022-10-05T02:00:07.674Z,2.50
2022-10-05T02:02:56.561Z,2.53
2022-10-05T02:05:30.211Z,2.63
2022-10-05T02:08:26.772Z,2.63
2022-10-05T02:11:02.533Z,2.80
2022-10-05T02:13:38.880Z,2.40
2022-10-05T02:16:21.279Z,2.40
2022-10-05T02:18:59.916Z,2.58
2022-10-05T02:21:32.934Z,2.63
2022-10-05T02:24:11.323Z,2.72
2022-10-05T02:26:39.952Z,2.70
2022-10-05T02:29:11.678Z,3.00
2022-10-05T02:31:49.145Z,2.75
2022-10-05T02:34:27.609Z,2.78
2022-10-05T02:37:10.498Z,2.65
2022-10-05T02:39:54.345Z,2.63
2022-10-05T02:42:40.272Z,2.67
2022-10-05T02:45:43.392Z,3.17
2022-10-05T02:48:35.631Z,2.60
2022-10-05T02:51:14.860Z,2.90
2022-10-05T02:54:17.272Z,2.80
2022-10-05T02:56:56.428Z,2.92
2022-10-05T02:59:48.034Z,2.90
2022-10-05T03:02:27.000Z,3.28
2022-10-05T03:04:57.037Z,3.63
2022-10-05T03:07:32.092Z,2.80
2022-10-05T03:10:15.215Z,3.08
2022-10-05T03:12:57.327Z,2.92
2022-10-05T03:15:31.470Z,3.28
2022-10-05T03:18:31.039Z,2.53
2022-10-05T03:21:05.749Z,3.00
2022-10-05T03:23:36.091Z,2.75
2022-10-05T03:26:10.767Z,2.90
2022-10-05T03:29:14.396Z,2.70
2022-10-05T03:31:45.010Z,3.00
2022-10-05T03:34:18.909Z,2.85
2022-10-05T03:37:07.107Z,3.10
2022-10-05T03:39:47.145Z,2.80
2022-10-05T03:42:26.527Z,2.88
2022-10-05T03:45:27.109Z,2.65
2022-10-05T03:47:57.708Z,2.70
2022-10-05T03:50:37.713Z,2.90
2022-10-05T03:53:40.602Z,3.08
2022-10-05T03:56:18.822Z,2.83
2022-10-05T03:58:58.341Z,3.15
2022-10-05T04:01:48.920Z,3.08
2022-10-05T04:04:25.835Z,2.90
2022-10-05T04:09:30.532Z,3.10
2022-10-05T04:12:21.687Z,2.70
2022-10-05T04:14:54.877Z,2.58
2022-10-05T04:17:38.842Z,2.80
2022-10-05T04:20:22.249Z,2.60
2022-10-05T04:22:53.963Z,2.90
2022-10-05T04:25:27.807Z,2.53
2022-10-05T04:28:10.932Z,2.78
2022-10-05T04:30:41.285Z,2.65
2022-10-05T04:33:16.094Z,3.10
2022-10-05T04:36:02.715Z,2.80
2022-10-05T04:38:39.580Z,3.20
2022-10-05T04:44:20.909Z,2.95
2022-10-05T04:46:51.259Z,2.80
2022-10-05T04:50:03.233Z,3.08
2022-10-05T04:52:49.940Z,2.97
2022-10-05T04:55:46.545Z,3.10
2022-10-05T04:58:55.626Z,2.72
2022-10-05T05:01:50.703Z,2.70
2022-10-05T05:04:51.890Z,2.30
2022-10-05T05:07:45.079Z,2.40
2022-10-05T05:10:34.233Z,2.50
2022-10-05T05:13:18.682Z,2.45
2022-10-05T05:15:55.831Z,2.50
2022-10-05T05:18:53.984Z,1.90
2022-10-05T05:21:22.148Z,1.75
2022-10-05T05:24:23.983Z,2.08
2022-10-05T05:26:57.322Z,1.83
2022-10-05T05:29:43.008Z,1.83
2022-10-05T05:32:27.254Z,2.25
2022-10-05T05:35:16.160Z,2.65
2022-10-05T05:37:53.251Z,2.10
2022-10-05T05:40:30.068Z,1.80
2022-10-05T05:43:02.543Z,1.80
2022-10-05T05:45:30.732Z,1.80
2022-10-05T05:47:59.572Z,2.10
2022-10-05T05:50:38.803Z,1.80
2022-10-05T05:53:25.232Z,1.92
2022-10-05T05:55:59.329Z,1.90
2022-10-05T05:58:40.804Z,2.20
2022-10-05T06:01:30.731Z,3.15
2022-10-05T06:04:17.283Z,2.65
2022-10-05T06:06:50.012Z,1.92
2022-10-05T06:09:46.749Z,2.30
2022-10-05T06:12:37.718Z,2.13
2022-10-05T06:15:50.667Z,1.67
2022-10-05T06:18:21.769Z,1.70
2022-10-05T06:20:53.518Z,1.40
2022-10-05T06:23:28.506Z,1.40
2022-10-05T06:25:59.089Z,1.50
2022-10-05T06:28:27.542Z,1.65
2022-10-05T06:31:01.737Z,1.70
2022-10-05T06:33:51.008Z,2.00
2022-10-05T06:36:48.998Z,1.40
2022-10-05T06:39:23.713Z,1.58
2022-10-05T06:42:09.566Z,1.55
2022-10-05T06:45:00.850Z,1.30
2022-10-05T06:48:06.265Z,1.40
2022-10-05T06:51:00.760Z,1.30
2022-10-05T06:54:23.235Z,2.05
2022-10-05T06:57:23.882Z,1.88
2022-10-05T07:00:12.893Z,1.70
2022-10-05T07:03:10.959Z,1.45
2022-10-05T07:05:49.327Z,1.80
2022-10-05T07:08:19.857Z,1.45
2022-10-05T07:10:53.001Z,1.55
2022-10-05T07:14:11.209Z,1.60
2022-10-05T07:16:52.955Z,1.45
2022-10-05T07:19:42.036Z,1.90
2022-10-05T07:22:18.229Z,1.60
2022-10-05T07:24:53.581Z,1.25
2022-10-05T07:27:23.942Z,1.60
2022-10-05T07:30:04.788Z,1.55
2022-10-05T07:32:55.112Z,1.30
2022-10-05T07:35:54.158Z,1.50
2022-10-05T07:38:44.243Z,1.60
2022-10-05T07:41:16.259Z,1.90
2022-10-05T07:44:02.038Z,2.28
2022-10-05T07:46:47.119Z,2.47
2022-10-05T07:49:14.376Z,2.00
2022-10-05T07:52:17.115Z,2.45
2022-10-05T07:55:02.911Z,1.98
2022-10-05T08:00:10.832Z,1.60
2022-10-05T08:03:01.614Z,1.60
2022-10-05T08:05:34.757Z,1.40
2022-10-05T08:08:11.641Z,1.25
2022-10-05T08:10:50.878Z,1.42
2022-10-05T08:13:36.182Z,1.60
2022-10-05T08:16:12.679Z,1.80
2022-10-05T08:18:56.174Z,1.35
2022-10-05T08:21:36.473Z,1.70
2022-10-05T08:24:11.300Z,2.00
2022-10-05T08:26:48.309Z,2.10
2022-10-05T08:29:18.238Z,1.58
2022-10-05T08:31:49.709Z,2.00
2022-10-05T08:34:48.125Z,1.10
2022-10-05T08:37:27.646Z,1.30
2022-10-05T08:40:18.958Z,1.70
2022-10-05T08:43:16.326Z,1.90
2022-10-05T08:46:10.845Z,2.30
2022-10-05T08:49:04.789Z,1.90
2022-10-05T08:52:13.011Z,1.80
2022-10-05T08:57:23.837Z,1.52
2022-10-05T09:00:02.858Z,1.60
2022-10-05T09:03:05.969Z,2.40
2022-10-05T09:06:11.897Z,1.92
2022-10-05T09:08:51.676Z,1.60
2022-10-05T09:12:01.338Z,1.15
2022-10-05T09:14:37.077Z,1.30
2022-10-05T09:17:22.557Z,1.42
2022-10-05T09:19:54.540Z,1.42
2022-10-05T09:22:27.497Z,1.40
2022-10-05T09:25:03.948Z,1.50
2022-10-05T09:27:51.957Z,1.00
2022-10-05T09:30:31.022Z,1.10
2022-10-05T09:33:31.956Z,0.98
2022-10-05T09:36:23.105Z,1.35
2022-10-05T09:39:05.409Z,3.53
2022-10-05T09:42:09.349Z,1.50
2022-10-05T09:44:42.536Z,1.27
2022-10-05T09:47:33.556Z,1.00
2022-10-05T09:50:09.445Z,0.80
2022-10-05T09:53:06.045Z,0.95
2022-10-05T09:55:45.185Z,0.93
2022-10-05T09:58:35.449Z,1.48
2022-10-05T10:01:28.993Z,1.00
2022-10-05T10:04:12.966Z,0.93
2022-10-05T10:07:13.417Z,1.10
2022-10-05T10:09:59.123Z,0.90
2022-10-05T10:12:38.480Z,0.73
2022-10-05T10:15:14.337Z,0.90
2022-10-05T10:17:56.530Z,0.90
2022-10-05T10:20:35.504Z,0.80
2022-10-05T10:23:42.830Z,0.90
2022-10-05T10:26:30.755Z,1.52
2022-10-05T10:29:06.866Z,1.05
2022-10-05T10:31:33.816Z,0.98
2022-10-05T10:34:06.346Z,1.00
2022-10-05T10:36:42.046Z,1.67
2022-10-05T10:39:26.586Z,0.93
2022-10-05T10:42:33.073Z,0.70
2022-10-05T10:45:10.674Z,1.10
2022-10-05T10:47:50.620Z,1.20
2022-10-05T10:50:28.460Z,0.90
2022-10-05T10:53:19.809Z,1.55
2022-10-05T10:56:34.761Z,1.08
2022-10-05T10:59:29.239Z,2.53
2022-10-05T11:02:04.635Z,1.20
2022-10-05T11:04:47.094Z,0.95
2022-10-05T11:07:25.162Z,1.00
2022-10-05T11:10:14.778Z,1.20
2022-10-05T11:12:58.100Z,1.00
2022-10-05T11:15:30.577Z,0.88
2022-10-05T11:18:11.477Z,0.93
2022-10-05T11:20:59.412Z,1.10
2022-10-05T11:23:26.338Z,0.60
2022-10-05T11:26:12.750Z,0.90
2022-10-05T11:29:17.983Z,0.90
2022-10-05T11:32:26.702Z,1.00
2022-10-05T11:35:26.034Z,0.75
2022-10-05T11:37:53.731Z,0.80
2022-10-05T11:40:51.957Z,0.80
2022-10-05T11:43:34.121Z,0.85
2022-10-05T11:46:24.749Z,1.00
2022-10-05T11:49:13.730Z,1.10
2022-10-05T11:51:40.618Z,1.00
2022-10-05T11:54:10.197Z,1.10
2022-10-05T11:56:44.623Z,0.70
2022-10-05T11:59:34.670Z,0.90
2022-10-05T12:02:25.559Z,1.10
2022-10-05T12:05:10.886Z,1.48
2022-10-05T12:07:46.946Z,1.30
2022-10-05T12:10:21.393Z,1.10
2022-10-05T12:13:01.383Z,1.00
2022-10-05T12:15:36.921Z,1.08
2022-10-05T12:18:24.158Z,1.13
2022-10-05T12:21:15.189Z,1.38
2022-10-05T12:24:35.859Z,0.95
2022-10-05T12:27:12.042Z,0.70
2022-10-05T12:30:11.366Z,0.80
2022-10-05T12:32:55.888Z,0.93
2022-10-05T12:35:48.065Z,0.77
2022-10-05T12:38:53.605Z,0.77
2022-10-05T12:41:49.855Z,0.80
2022-10-05T12:44:34.492Z,1.00
2022-10-05T12:47:09.001Z,1.67
2022-10-05T12:49:54.859Z,1.17
2022-10-05T12:52:56.185Z,1.25
2022-10-05T12:55:53.597Z,1.00
2022-10-05T12:58:42.300Z,1.50
2022-10-05T13:01:54.536Z,1.25
2022-10-05T13:04:58.684Z,1.20
2022-10-05T13:07:40.781Z,1.10
2022-10-05T13:10:20.035Z,1.08
2022-10-05T13:13:05.082Z,1.20
2022-10-05T13:15:54.723Z,0.95
2022-10-05T13:19:14.263Z,1.10
2022-10-05T13:21:49.814Z,1.00
2022-10-05T13:24:26.823Z,1.10
2022-10-05T13:26:59.795Z,1.20
2022-10-05T13:29:41.441Z,1.55
2022-10-05T13:32:20.824Z,1.08
2022-10-05T13:35:29.606Z,1.23
2022-10-05T13:38:15.773Z,1.02
2022-10-05T13:41:00.741Z,1.10
2022-10-05T13:43:59.051Z,0.93
2022-10-05T13:46:37.016Z,1.23
2022-10-05T13:49:55.351Z,1.00
2022-10-05T13:52:42.664Z,1.10
2022-10-05T13:55:43.374Z,0.90
2022-10-05T13:58:19.010Z,1.20
2022-10-05T14:01:16.189Z,1.00
2022-10-05T14:04:24.710Z,1.00
2022-10-05T14:06:54.931Z,1.20
2022-10-05T14:09:22.238Z,1.10
2022-10-05T14:11:51.619Z,1.10
2022-10-05T14:14:30.777Z,1.10
2022-10-05T14:17:00.346Z,1.35
2022-10-05T14:19:32.588Z,0.93
2022-10-05T14:22:01.722Z,1.00
2022-10-05T14:24:50.475Z,2.70
2022-10-05T14:27:28.613Z,1.30
2022-10-05T14:29:57.899Z,1.33
2022-10-05T14:32:27.202Z,1.65
2022-10-05T14:35:05.211Z,2.03
2022-10-05T14:37:43.444Z,2.70
2022-10-05T14:40:24.680Z,1.38
2022-10-05T14:42:51.990Z,1.40
2022-10-05T14:45:25.991Z,1.75
2022-10-05T14:48:00.287Z,1.17
2022-10-05T14:50:30.817Z,1.42
2022-10-05T14:53:11.606Z,1.40
2022-10-05T14:56:06.491Z,1.67
2022-10-05T14:58:43.029Z,1.20
2022-10-05T15:01:16.240Z,1.50
2022-10-05T15:03:57.749Z,1.50
2022-10-05T15:06:36.599Z,1.65
2022-10-05T15:09:28.460Z,1.98
2022-10-05T15:11:58.427Z,1.60
2022-10-05T15:14:35.965Z,1.40
2022-10-05T15:17:12.757Z,1.80
2022-10-05T15:22:29.446Z,1.50
2022-10-05T15:25:15.022Z,1.40
2022-10-05T15:27:54.058Z,1.52
2022-10-05T15:30:22.432Z,1.50
2022-10-05T15:33:13.006Z,1.65
2022-10-05T15:36:14.424Z,1.50
2022-10-05T15:38:51.452Z,1.38
2022-10-05T15:41:24.197Z,1.80
2022-10-05T15:44:15.749Z,1.80
2022-10-05T15:46:56.990Z,1.60
2022-10-05T15:49:43.355Z,1.63
2022-10-05T15:52:23.970Z,1.35
2022-10-05T15:55:08.936Z,1.33
2022-10-05T15:58:02.180Z,1.38
2022-10-05T16:00:33.915Z,1.27
2022-10-05T16:03:19.743Z,1.52
2022-10-05T16:06:08.118Z,1.30
2022-10-05T16:09:08.094Z,1.48
2022-10-05T16:12:04.943Z,1.60
2022-10-05T16:14:49.768Z,1.50
2022-10-05T16:17:41.506Z,2.40
2022-10-05T16:20:45.964Z,1.38
2022-10-05T16:23:35.345Z,1.50
2022-10-05T16:26:21.011Z,1.33
2022-10-05T16:28:57.074Z,1.30
2022-10-05T16:31:31.171Z,1.33
2022-10-05T16:34:38.638Z,1.30
2022-10-05T16:37:20.322Z,1.50
2022-10-05T16:39:53.121Z,1.10
2022-10-05T16:42:39.348Z,1.38
2022-10-05T16:45:09.249Z,1.10
2022-10-05T16:47:57.671Z,1.20
2022-10-05T16:50:55.251Z,1.13
2022-10-05T16:53:33.159Z,1.20
2022-10-05T16:56:19.357Z,1.50
2022-10-05T16:59:13.462Z,1.50
2022-10-05T17:02:08.192Z,1.58
2022-10-05T17:04:59.062Z,1.40
2022-10-05T17:07:41.065Z,1.27
2022-10-05T17:10:28.492Z,1.52
2022-10-05T17:13:16.216Z,1.30
2022-10-05T17:16:10.757Z,1.45
2022-10-05T17:18:58.991Z,1.27
2022-10-05T17:21:37.629Z,1.60
2022-10-05T17:24:42.013Z,1.45
2022-10-05T17:27:50.673Z,1.58
2022-10-05T17:30:27.256Z,1.92
2022-10-05T17:33:04.759Z,1.63
2022-10-05T17:35:51.927Z,1.40
2022-10-05T17:41:20.462Z,1.50
2022-10-05T17:44:21.538Z,1.60
2022-10-05T17:46:49.973Z,1.40
2022-10-05T17:49:41.870Z,1.23
2022-10-05T17:53:02.599Z,1.27
2022-10-05T17:55:38.603Z,1.40
2022-10-05T17:58:23.987Z,1.40
2022-10-05T18:00:56.924Z,1.35
2022-10-05T18:03:41.732Z,1.42
2022-10-05T18:06:24.393Z,1.48
2022-10-05T18:09:14.062Z,1.50
2022-10-05T18:11:43.118Z,1.40
2022-10-05T18:14:25.602Z,1.67
2022-10-05T18:17:12.438Z,1.75
2022-10-05T18:19:39.646Z,1.48
2022-10-05T18:22:28.040Z,1.70
2022-10-05T18:25:05.927Z,1.90
2022-10-05T18:28:02.705Z,1.80
2022-10-05T18:30:44.770Z,1.98
2022-10-05T18:33:47.228Z,1.88
2022-10-05T18:36:24.918Z,2.58
2022-10-05T18:39:03.028Z,2.28
2022-10-05T18:41:45.577Z,2.00
2022-10-05T18:44:12.571Z,2.10
2022-10-05T18:46:50.456Z,2.05
2022-10-05T18:49:38.490Z,2.40
2022-10-05T18:52:15.030Z,2.10
2022-10-05T18:55:10.023Z,2.00
2022-10-05T18:57:43.479Z,2.78
2022-10-05T19:00:25.352Z,2.03
2022-10-05T19:03:01.666Z,1.80
2022-10-05T19:05:52.626Z,2.15
2022-10-05T19:08:28.909Z,3.17
2022-10-05T19:11:12.637Z,1.80
2022-10-05T19:14:13.347Z,1.90
2022-10-05T19:16:52.053Z,1.83
2022-10-05T19:19:52.703Z,1.90
2022-10-05T19:22:28.194Z,1.60
2022-10-05T19:25:16.435Z,2.20
2022-10-05T19:27:55.572Z,2.08
2022-10-05T19:30:25.385Z,1.77
2022-10-05T19:32:58.962Z,2.13
2022-10-05T19:35:58.653Z,2.00
2022-10-05T19:38:52.438Z,1.80
2022-10-05T19:41:35.620Z,1.88
2022-10-05T19:44:47.147Z,1.90
2022-10-05T19:47:29.060Z,1.80
2022-10-05T19:49:55.973Z,2.15
2022-10-05T19:52:28.671Z,1.70
2022-10-05T19:55:17.045Z,1.90
2022-10-05T19:57:52.706Z,1.70
2022-10-05T20:00:31.441Z,1.92
2022-10-05T20:03:26.616Z,1.85
2022-10-05T20:05:56.415Z,1.67
2022-10-05T20:08:27.519Z,1.80
2022-10-05T20:11:21.203Z,1.60
2022-10-05T20:14:10.324Z,1.80
2022-10-05T20:16:55.787Z,1.65
2022-10-05T20:22:35.299Z,1.80
2022-10-05T20:25:08.489Z,1.92
2022-10-05T20:27:39.760Z,1.60
2022-10-05T20:30:08.716Z,1.98
2022-10-05T20:32:35.647Z,2.13
2022-10-05T20:35:02.672Z,2.13
2022-10-05T20:37:30.309Z,2.17
2022-10-05T20:39:57.275Z,1.77
2022-10-05T20:42:24.367Z,2.00
2022-10-05T20:44:56.521Z,2.40
2022-10-05T20:47:24.364Z,1.90
2022-10-05T20:49:53.475Z,1.75
2022-10-05T20:52:21.517Z,2.03
2022-10-05T20:54:53.119Z,1.90
2022-10-05T20:57:21.358Z,1.90
2022-10-05T20:59:48.442Z,1.88
2022-10-05T21:02:15.360Z,2.13
2022-10-05T21:04:47.539Z,1.80
2022-10-05T21:07:23.488Z,1.70
2022-10-05T21:09:51.660Z,2.03
2022-10-05T21:12:18.654Z,1.67
2022-10-05T21:14:46.316Z,1.75
2022-10-05T21:17:14.296Z,1.70
2022-10-05T21:19:41.334Z,1.85
2022-10-05T21:22:10.278Z,2.50
2022-10-05T21:24:39.787Z,2.13
2022-10-05T21:27:07.989Z,2.42
2022-10-05T21:29:36.588Z,1.98
2022-10-05T21:32:08.660Z,3.10
2022-10-05T21:34:35.802Z,2.30
2022-10-05T21:37:02.854Z,2.30
2022-10-05T21:39:29.798Z,2.20
2022-10-05T21:41:56.856Z,1.90
2022-10-05T21:44:23.922Z,2.25
2022-10-05T21:46:51.318Z,2.20
2022-10-05T21:49:19.858Z,2.30
2022-10-05T21:51:47.944Z,2.40
2022-10-05T21:54:18.693Z,2.70
2022-10-05T21:56:52.082Z,2.60
2022-10-05T21:59:22.032Z,2.80
2022-10-05T22:01:49.134Z,2.80
2022-10-05T22:04:16.244Z,2.55
2022-10-05T22:06:43.329Z,2.78
2022-10-05T22:09:10.971Z,2.78
2022-10-05T22:11:38.299Z,2.95
2022-10-05T22:14:05.261Z,2.60
2022-10-05T22:16:36.729Z,3.25
2022-10-05T22:19:11.715Z,2.80
2022-10-05T22:21:41.824Z,3.00
2022-10-05T22:24:11.370Z,2.90
2022-10-05T22:26:39.729Z,3.13
2022-10-05T22:29:06.729Z,2.70
2022-10-05T22:31:33.836Z,2.88
2022-10-05T22:34:00.990Z,2.78
2022-10-05T22:36:28.249Z,2.80
2022-10-05T22:38:55.162Z,2.75
2022-10-05T22:41:22.152Z,2.72
2022-10-05T22:43:50.326Z,2.85
2022-10-05T22:46:18.422Z,2.92
2022-10-05T22:48:45.521Z,2.80
2022-10-05T22:51:12.751Z,2.55
2022-10-05T22:53:39.702Z,2.80
2022-10-05T22:56:09.649Z,3.05
2022-10-05T22:58:37.056Z,3.05
2022-10-05T23:01:13.249Z,2.58
2022-10-05T23:03:41.069Z,2.70
2022-10-05T23:06:19.919Z,2.85
2022-10-05T23:08:47.674Z,2.00
2022-10-05T23:11:18.085Z,2.33
2022-10-05T23:13:45.147Z,2.30
2022-10-05T23:16:18.329Z,2.30
2022-10-05T23:18:48.615Z,2.75
2022-10-05T23:21:16.021Z,2.03
2022-10-05T23:23:49.110Z,2.17
2022-10-05T23:26:17.157Z,2.13
2022-10-05T23:28:47.370Z,2.47
2022-10-05T23:31:17.546Z,2.17
2022-10-05T23:33:44.800Z,2.30
2022-10-05T23:36:15.271Z,2.20
2022-10-05T23:38:42.233Z,2.80
2022-10-05T23:41:11.206Z,2.53
2022-10-05T23:43:38.217Z,2.40
2022-10-05T23:46:06.780Z,2.30
2022-10-05T23:48:34.638Z,2.50
2022-10-05T23:51:01.647Z,2.10
2022-10-05T23:53:28.597Z,2.10
2022-10-05T23:55:56.266Z,2.60
2022-10-05T23:58:24.227Z,2.45
